Time;durP1;ratioP1;P1;durP2;ratioP2;P2;SDS_P1;SDS_P2;PMS_P1;PMS_P2;Temp;Humidity;BMP_temperature;BMP_pressure;BME280_temperature;BME280_humidity;BME280_pressure;Samples;Min_cycle;Max_cycle;Signal;HPM_P1;HPM_P2
2021/10/19 00:00:11;;;;;;;0.40;0.40;;;9.40;99.90;;;;;;5073865;28;20089;-73
2021/10/19 00:02:37;;;;;;;0.20;0.20;;;9.30;99.90;;;;;;5072753;28;20020;-73
2021/10/19 00:05:05;;;;;;;0.32;0.32;;;9.10;99.90;;;;;;5073900;28;20024;-73
2021/10/19 00:07:30;;;;;;;0.30;0.30;;;8.90;99.90;;;;;;5073795;28;20367;-73
2021/10/19 00:09:56;;;;;;;0.40;0.40;;;8.80;99.90;;;;;;5073584;28;20021;-73
2021/10/19 00:12:22;;;;;;;0.93;0.90;;;8.70;99.90;;;;;;5073782;28;20029;-73
2021/10/19 00:14:48;;;;;;;0.73;0.73;;;8.60;99.90;;;;;;5073574;28;20093;-73
2021/10/19 00:17:14;;;;;;;0.20;0.20;;;8.60;99.90;;;;;;5073978;28;20025;-73
2021/10/19 00:19:40;;;;;;;0.20;0.20;;;8.50;99.90;;;;;;5073612;28;20107;-73
2021/10/19 00:22:07;;;;;;;0.20;0.20;;;8.50;99.90;;;;;;5073526;28;20055;-73
2021/10/19 00:24:32;;;;;;;1.42;1.33;;;8.30;99.90;;;;;;5072042;28;20030;-73
2021/10/19 00:26:59;;;;;;;0.30;0.30;;;8.40;99.90;;;;;;5073346;28;20025;-73
2021/10/19 00:29:24;;;;;;;1.27;1.27;;;8.30;99.90;;;;;;5073852;28;20028;-73
2021/10/19 00:31:52;;;;;;;0.20;0.20;;;8.30;99.90;;;;;;5073631;28;20380;-73
2021/10/19 00:34:18;;;;;;;0.80;0.50;;;8.30;99.90;;;;;;5073260;28;20032;-73
2021/10/19 00:36:44;;;;;;;0.35;0.35;;;8.20;99.90;;;;;;5071852;28;20074;-73
2021/10/19 00:39:10;;;;;;;0.47;0.45;;;8.30;99.90;;;;;;5073007;28;20387;-73
2021/10/19 00:41:36;;;;;;;0.20;0.20;;;8.40;99.90;;;;;;5073083;28;20032;-73
2021/10/19 00:44:03;;;;;;;2.55;0.70;;;8.30;99.90;;;;;;5073075;28;20024;-73
2021/10/19 00:46:29;;;;;;;0.73;0.73;;;8.30;99.90;;;;;;5071671;28;20501;-73
2021/10/19 00:48:54;;;;;;;1.13;0.80;;;8.20;99.90;;;;;;5073137;28;20159;-73
2021/10/19 00:51:21;;;;;;;0.50;0.50;;;8.20;99.90;;;;;;5072896;28;20017;-73
2021/10/19 00:53:47;;;;;;;0.30;0.30;;;8.10;99.90;;;;;;5072802;28;20021;-73
2021/10/19 00:56:13;;;;;;;0.68;0.40;;;8.10;99.90;;;;;;5072742;28;20122;-73
2021/10/19 00:58:40;;;;;;;0.30;0.30;;;8.10;99.90;;;;;;5072589;28;20062;-73
2021/10/19 01:01:07;;;;;;;0.30;0.30;;;8.20;99.90;;;;;;5072653;28;20029;-73
2021/10/19 01:03:33;;;;;;;0.40;0.40;;;8.40;99.90;;;;;;5072661;28;20052;-73
2021/10/19 01:06:02;;;;;;;0.47;0.47;;;8.50;99.90;;;;;;5072437;28;20043;-73
2021/10/19 01:08:29;;;;;;;0.30;0.30;;;8.60;99.90;;;;;;5072353;28;20030;-73
2021/10/19 01:10:55;;;;;;;0.30;0.30;;;8.60;99.90;;;;;;5072539;28;20021;-73
2021/10/19 01:13:21;;;;;;;0.40;0.40;;;8.60;99.90;;;;;;5072412;28;20024;-73
2021/10/19 01:15:48;;;;;;;0.30;0.30;;;8.80;99.90;;;;;;5071074;28;20469;-73
2021/10/19 01:18:15;;;;;;;0.20;0.20;;;8.90;99.90;;;;;;5072234;28;20119;-73
2021/10/19 01:20:42;;;;;;;0.20;0.20;;;8.90;99.90;;;;;;5072291;28;20460;-73
2021/10/19 01:23:09;;;;;;;0.20;0.20;;;9.10;99.90;;;;;;5071303;28;20379;-73
2021/10/19 01:25:35;;;;;;;0.30;0.30;;;9.10;99.90;;;;;;5071069;28;20166;-74
2021/10/19 01:28:02;;;;;;;0.30;0.30;;;9.00;99.90;;;;;;5072073;28;20024;-73
2021/10/19 01:30:28;;;;;;;2.97;0.80;;;8.90;99.90;;;;;;5072262;28;20024;-73
2021/10/19 01:32:54;;;;;;;0.30;0.30;;;8.80;99.90;;;;;;5072209;28;20035;-73
2021/10/19 01:35:34;;;;;;;12.05;1.27;;;8.60;99.90;;;;;;5071698;28;20051;-73
2021/10/19 01:37:59;;;;;;;0.20;0.20;;;8.50;99.90;;;;;;5071987;28;20025;-73
2021/10/19 01:40:25;;;;;;;0.20;0.20;;;8.60;99.90;;;;;;5070781;28;20373;-73
2021/10/19 01:42:51;;;;;;;0.20;0.20;;;8.60;99.90;;;;;;5070819;28;20123;-73
2021/10/19 01:45:18;;;;;;;0.40;0.40;;;8.70;99.90;;;;;;5070687;28;20070;-74
2021/10/19 01:47:45;;;;;;;0.30;0.30;;;8.80;99.90;;;;;;5072202;28;20024;-73
2021/10/19 01:50:13;;;;;;;0.20;0.20;;;8.90;99.90;;;;;;5071946;28;20040;-73
2021/10/19 01:52:39;;;;;;;0.60;0.60;;;9.00;99.90;;;;;;5071896;28;20093;-73
2021/10/19 01:55:07;;;;;;;1.27;0.98;;;8.90;99.90;;;;;;5071903;28;20028;-73
2021/10/19 01:57:34;;;;;;;0.30;0.30;;;8.70;99.90;;;;;;5071031;28;20040;-73
2021/10/19 02:00:00;;;;;;;0.77;0.68;;;8.70;99.90;;;;;;5070560;28;20035;-73
2021/10/19 02:02:26;;;;;;;0.55;0.55;;;8.50;99.90;;;;;;5071946;28;20419;-73
2021/10/19 02:04:52;;;;;;;0.63;0.40;;;8.40;99.90;;;;;;5071797;28;20025;-73
2021/10/19 02:07:17;;;;;;;0.55;0.55;;;8.40;99.90;;;;;;5084836;22;20056;-73
2021/10/19 02:09:43;;;;;;;0.20;0.20;;;8.40;99.90;;;;;;5070999;28;20490;-73
2021/10/19 02:12:09;;;;;;;0.30;0.30;;;8.50;99.90;;;;;;5071422;28;20031;-73
2021/10/19 02:14:34;;;;;;;1.80;0.60;;;8.50;99.90;;;;;;5071467;28;20371;-73
2021/10/19 02:17:02;;;;;;;0.60;0.60;;;8.40;99.90;;;;;;5071533;28;20025;-73
2021/10/19 02:19:28;;;;;;;0.38;0.38;;;8.40;99.90;;;;;;5070183;28;20047;-73
2021/10/19 02:21:54;;;;;;;1.15;0.73;;;8.30;99.90;;;;;;5071537;28;20287;-73
2021/10/19 02:24:20;;;;;;;0.70;0.70;;;8.30;99.90;;;;;;5053507;28;20579;-73
2021/10/19 02:26:47;;;;;;;1.65;0.95;;;8.20;99.90;;;;;;5053362;28;20301;-73
2021/10/19 02:29:14;;;;;;;0.50;0.47;;;8.20;99.90;;;;;;5070023;28;20035;-73
2021/10/19 02:31:39;;;;;;;0.63;0.63;;;8.20;99.90;;;;;;5070443;28;20118;-73
2021/10/19 02:34:05;;;;;;;0.22;0.22;;;8.20;99.90;;;;;;5070186;28;20111;-73
2021/10/19 02:36:33;;;;;;;0.20;0.20;;;8.30;99.90;;;;;;5071166;28;20027;-73
2021/10/19 02:39:03;;;;;;;0.22;0.22;;;8.40;99.90;;;;;;5071315;28;20098;-73
2021/10/19 02:41:29;;;;;;;3.72;0.90;;;8.50;99.90;;;;;;5071335;28;20028;-73
2021/10/19 02:43:55;;;;;;;0.75;0.63;;;8.50;99.90;;;;;;5071358;28;20431;-73
2021/10/19 02:46:21;;;;;;;0.40;0.40;;;8.50;99.90;;;;;;5071114;28;20288;-73
2021/10/19 02:48:47;;;;;;;0.20;0.20;;;8.50;99.90;;;;;;5074628;28;20029;-73
2021/10/19 02:51:13;;;;;;;0.30;0.30;;;8.50;99.90;;;;;;5075022;28;20031;-73
2021/10/19 02:53:39;;;;;;;2.92;0.85;;;8.50;99.90;;;;;;5074949;28;20021;-73
2021/10/19 02:56:04;;;;;;;0.70;0.32;;;8.40;99.90;;;;;;5074741;28;20195;-73
2021/10/19 02:58:30;;;;;;;0.20;0.20;;;8.40;99.90;;;;;;5074876;28;20075;-73
2021/10/19 03:00:56;;;;;;;0.30;0.30;;;8.40;99.90;;;;;;5074844;28;20029;-73
2021/10/19 03:03:21;;;;;;;0.20;0.20;;;8.40;99.90;;;;;;5056794;28;20131;-73
2021/10/19 03:05:47;;;;;;;0.65;0.65;;;8.30;99.90;;;;;;5074411;28;20027;-73
2021/10/19 03:08:13;;;;;;;2.25;0.90;;;8.30;99.90;;;;;;5074574;28;20032;-73
2021/10/19 03:10:39;;;;;;;0.30;0.30;;;8.40;99.90;;;;;;5073474;28;20036;-73
2021/10/19 03:13:04;;;;;;;0.20;0.20;;;8.40;99.90;;;;;;5074634;28;20415;-73
2021/10/19 03:15:30;;;;;;;0.20;0.20;;;8.40;99.90;;;;;;5074524;28;20047;-73
2021/10/19 03:17:56;;;;;;;0.43;0.43;;;8.40;99.90;;;;;;5073246;28;20020;-73
2021/10/19 03:20:22;;;;;;;0.30;0.30;;;8.40;99.90;;;;;;5074403;28;20025;-73
2021/10/19 03:22:47;;;;;;;0.20;0.20;;;8.40;99.90;;;;;;5074501;28;20476;-73
2021/10/19 03:25:13;;;;;;;1.02;0.30;;;8.50;99.90;;;;;;5056204;28;20024;-73
2021/10/19 03:27:39;;;;;;;0.38;0.38;;;8.40;99.90;;;;;;5074331;28;20033;-73
2021/10/19 03:30:06;;;;;;;0.30;0.30;;;8.50;99.90;;;;;;5072756;28;20115;-73
2021/10/19 03:32:31;;;;;;;0.70;0.35;;;8.50;99.90;;;;;;5074362;28;20056;-73
2021/10/19 03:34:58;;;;;;;0.70;0.70;;;8.40;99.90;;;;;;5072876;28;20048;-73
2021/10/19 03:37:25;;;;;;;0.30;0.30;;;8.30;99.90;;;;;;5056570;28;20103;-73
2021/10/19 03:39:50;;;;;;;0.30;0.30;;;8.20;99.90;;;;;;5074027;28;20028;-73
2021/10/19 03:42:16;;;;;;;0.30;0.30;;;8.10;99.90;;;;;;5074182;28;20033;-73
2021/10/19 03:44:42;;;;;;;0.50;0.50;;;8.10;99.90;;;;;;5073898;28;20024;-73
2021/10/19 03:47:08;;;;;;;0.30;0.30;;;8.20;99.90;;;;;;5073980;28;20059;-73
2021/10/19 03:49:34;;;;;;;0.20;0.20;;;8.20;99.90;;;;;;5073808;28;20032;-73
2021/10/19 03:52:00;;;;;;;2.42;1.50;;;8.20;99.90;;;;;;5072635;28;20048;-73
2021/10/19 03:54:26;;;;;;;0.25;0.25;;;8.20;99.90;;;;;;5072481;28;20361;-73
2021/10/19 03:56:52;;;;;;;0.30;0.30;;;8.20;99.90;;;;;;5073785;28;20028;-73
2021/10/19 03:59:17;;;;;;;0.32;0.32;;;8.30;99.90;;;;;;5055330;28;20495;-73
2021/10/19 04:01:43;;;;;;;1.83;1.25;;;8.40;99.90;;;;;;5073902;28;20024;-73
2021/10/19 04:04:09;;;;;;;0.25;0.25;;;8.40;99.90;;;;;;5072428;28;20598;-73
2021/10/19 04:06:35;;;;;;;1.27;1.23;;;8.40;99.90;;;;;;5073433;28;20036;-73
2021/10/19 04:09:00;;;;;;;0.43;0.38;;;8.40;99.90;;;;;;5073368;28;20479;-73
2021/10/19 04:11:26;;;;;;;0.30;0.30;;;8.40;99.90;;;;;;5073464;28;20375;-73
2021/10/19 04:13:52;;;;;;;0.30;0.30;;;8.40;99.90;;;;;;5073563;28;20035;-73
2021/10/19 04:16:18;;;;;;;0.32;0.32;;;8.40;99.90;;;;;;5073233;28;20017;-74
2021/10/19 04:18:44;;;;;;;0.32;0.32;;;8.40;99.90;;;;;;5072052;28;20492;-73
2021/10/19 04:21:12;;;;;;;0.40;0.40;;;8.30;99.90;;;;;;5073347;28;20104;-73
2021/10/19 04:23:37;;;;;;;0.40;0.40;;;8.20;99.90;;;;;;5072429;28;20082;-73
2021/10/19 04:26:03;;;;;;;0.50;0.50;;;8.20;99.90;;;;;;5077608;28;20025;-73
2021/10/19 04:28:29;;;;;;;0.28;0.28;;;8.20;99.90;;;;;;5081164;28;20119;-73
2021/10/19 04:30:55;;;;;;;0.30;0.30;;;8.10;99.90;;;;;;5092255;28;20020;-73
2021/10/19 04:33:21;;;;;;;0.50;0.50;;;8.10;99.90;;;;;;5077431;28;20028;-73
2021/10/19 04:35:46;;;;;;;0.70;0.55;;;8.00;99.90;;;;;;5071600;28;20024;-73
2021/10/19 04:38:13;;;;;;;0.85;0.85;;;7.90;99.90;;;;;;5072835;28;20444;-73
2021/10/19 04:40:39;;;;;;;0.65;0.65;;;7.90;99.90;;;;;;5075785;28;20023;-73
2021/10/19 04:43:05;;;;;;;0.30;0.30;;;7.80;99.90;;;;;;5092831;28;20387;-73
2021/10/19 04:45:30;;;;;;;0.28;0.28;;;7.80;99.90;;;;;;5071488;28;20016;-73
2021/10/19 04:47:57;;;;;;;0.32;0.32;;;7.70;99.90;;;;;;5072620;28;20111;-73
2021/10/19 04:50:23;;;;;;;1.10;1.10;;;7.80;99.90;;;;;;5071335;28;20404;-73
2021/10/19 04:52:49;;;;;;;0.20;0.20;;;7.80;99.90;;;;;;5072570;28;20052;-73
2021/10/19 04:55:15;;;;;;;0.20;0.20;;;7.80;99.90;;;;;;5072572;28;20059;-73
2021/10/19 04:57:41;;;;;;;0.20;0.20;;;7.90;99.90;;;;;;5079188;28;20040;-73
2021/10/19 05:00:07;;;;;;;0.28;0.28;;;7.90;99.90;;;;;;5073406;28;20032;-73
2021/10/19 05:02:41;;;;;;;0.30;0.30;;;8.10;99.90;;;;;;5091416;28;20020;-73
2021/10/19 05:05:07;;;;;;;0.30;0.30;;;8.20;99.90;;;;;;5082699;28;20028;-73
2021/10/19 05:07:32;;;;;;;0.20;0.20;;;8.00;99.90;;;;;;5072322;28;20395;-73
2021/10/19 05:09:58;;;;;;;0.30;0.30;;;8.00;99.90;;;;;;5071502;28;20096;-73
2021/10/19 05:12:24;;;;;;;0.20;0.20;;;7.90;99.90;;;;;;5072246;28;20097;-73
2021/10/19 05:14:50;;;;;;;0.30;0.30;;;8.00;99.90;;;;;;5079945;28;20081;-73
2021/10/19 05:17:15;;;;;;;0.65;0.65;;;8.10;99.90;;;;;;5075779;28;20060;-73
2021/10/19 05:19:41;;;;;;;0.55;0.55;;;8.20;99.90;;;;;;5079113;28;20086;-73
2021/10/19 05:22:07;;;;;;;2.15;0.80;;;8.10;99.90;;;;;;5085466;28;20058;-73
2021/10/19 05:24:32;;;;;;;0.57;0.57;;;8.10;99.90;;;;;;5079329;28;20035;-73
2021/10/19 05:26:58;;;;;;;1.80;1.40;;;8.10;99.90;;;;;;5079031;28;20053;-73
2021/10/19 05:29:24;;;;;;;0.20;0.20;;;8.00;99.90;;;;;;5089330;28;20103;-73
2021/10/19 05:31:49;;;;;;;0.93;0.90;;;8.00;99.90;;;;;;5057239;28;20036;-73
2021/10/19 05:34:15;;;;;;;0.40;0.40;;;7.80;99.90;;;;;;5083598;28;20020;-73
2021/10/19 05:36:41;;;;;;;0.22;0.22;;;7.70;99.90;;;;;;5079814;28;20028;-73
2021/10/19 05:39:07;;;;;;;0.60;0.60;;;7.80;99.90;;;;;;5062545;28;20031;-73
2021/10/19 05:41:33;;;;;;;0.20;0.20;;;7.80;99.90;;;;;;5075915;28;20028;-73
2021/10/19 05:43:58;;;;;;;62.63;2.70;;;7.90;99.90;;;;;;5079758;28;20024;-73
2021/10/19 05:46:24;;;;;;;0.75;0.75;;;8.00;99.90;;;;;;5078715;28;20027;-73
2021/10/19 05:48:51;;;;;;;0.40;0.40;;;8.20;99.90;;;;;;5085726;28;20079;-73
2021/10/19 05:51:16;;;;;;;0.82;0.82;;;8.30;99.90;;;;;;5080551;28;20094;-73
2021/10/19 05:53:42;;;;;;;0.52;0.52;;;8.40;99.90;;;;;;5080432;28;20107;-73
2021/10/19 05:56:08;;;;;;;0.95;0.50;;;8.40;99.90;;;;;;5071073;28;20040;-73
2021/10/19 05:58:34;;;;;;;1.48;1.38;;;8.50;99.90;;;;;;5080022;28;20024;-73
2021/10/19 06:00:59;;;;;;;0.32;0.32;;;8.50;99.90;;;;;;5077048;28;20023;-73
2021/10/19 06:03:25;;;;;;;0.38;0.38;;;8.50;99.90;;;;;;5076849;28;20048;-73
2021/10/19 06:05:51;;;;;;;3.72;0.95;;;8.40;99.90;;;;;;5081807;28;20448;-73
2021/10/19 06:08:17;;;;;;;0.35;0.35;;;8.40;99.90;;;;;;5075583;28;20040;-73
2021/10/19 06:10:42;;;;;;;0.20;0.20;;;8.30;99.90;;;;;;5075394;28;20017;-73
2021/10/19 06:13:08;;;;;;;3.00;1.00;;;8.40;99.90;;;;;;5078905;28;20035;-73
2021/10/19 06:15:34;;;;;;;0.68;0.68;;;8.60;99.90;;;;;;5075238;28;20020;-73
2021/10/19 06:18:00;;;;;;;0.20;0.20;;;8.70;99.90;;;;;;5070036;28;20025;-73
2021/10/19 06:20:25;;;;;;;0.68;0.68;;;8.70;99.90;;;;;;5075638;28;20016;-73
2021/10/19 06:22:52;;;;;;;0.28;0.28;;;8.70;99.90;;;;;;5086481;28;20454;-73
2021/10/19 06:25:18;;;;;;;0.45;0.45;;;8.70;99.90;;;;;;5088863;28;20027;-73
2021/10/19 06:27:44;;;;;;;3.50;1.70;;;8.80;99.90;;;;;;5082972;28;20028;-73
2021/10/19 06:30:10;;;;;;;0.30;0.30;;;8.80;99.90;;;;;;5079215;28;20029;-73
2021/10/19 06:32:37;;;;;;;0.60;0.60;;;8.80;99.90;;;;;;5083166;28;20032;-73
2021/10/19 06:35:04;;;;;;;0.30;0.30;;;8.90;99.90;;;;;;5089029;28;20467;-73
2021/10/19 06:37:30;;;;;;;0.30;0.30;;;8.90;99.90;;;;;;5080277;28;20016;-73
2021/10/19 06:39:56;;;;;;;1.45;0.73;;;9.10;99.90;;;;;;5069653;28;20030;-73
2021/10/19 06:42:22;;;;;;;0.40;0.40;;;9.20;99.90;;;;;;5073894;28;20039;-73
2021/10/19 06:44:47;;;;;;;0.30;0.30;;;9.20;99.90;;;;;;5082454;28;20463;-73
2021/10/19 06:47:13;;;;;;;0.40;0.40;;;9.30;99.90;;;;;;5078569;28;20028;-73
2021/10/19 06:49:39;;;;;;;13.05;0.52;;;9.40;99.90;;;;;;5088447;28;20021;-73
2021/10/19 06:52:05;;;;;;;0.47;0.47;;;9.50;99.90;;;;;;5078955;28;20056;-73
2021/10/19 06:54:30;;;;;;;3.47;1.23;;;9.60;99.90;;;;;;5088136;28;20106;-73
2021/10/19 06:56:56;;;;;;;0.28;0.28;;;9.70;99.90;;;;;;5086191;28;20419;-73
2021/10/19 06:59:22;;;;;;;1.45;1.42;;;9.70;99.90;;;;;;5079192;28;20025;-73
2021/10/19 07:01:48;;;;;;;0.20;0.20;;;9.80;99.90;;;;;;5088178;28;20146;-73
2021/10/19 07:04:13;;;;;;;0.45;0.45;;;9.90;99.90;;;;;;5083177;28;20081;-73
2021/10/19 07:06:39;;;;;;;0.20;0.20;;;9.90;99.90;;;;;;5080399;28;20028;-73
2021/10/19 07:09:05;;;;;;;0.40;0.40;;;10.00;99.90;;;;;;5083116;28;20078;-73
2021/10/19 07:11:31;;;;;;;0.20;0.20;;;10.00;99.90;;;;;;5093335;28;20472;-73
2021/10/19 07:13:57;;;;;;;0.20;0.20;;;10.10;99.90;;;;;;5070011;28;20107;-73
2021/10/19 07:16:23;;;;;;;0.20;0.20;;;10.10;99.90;;;;;;5081822;28;20161;-73
2021/10/19 07:18:48;;;;;;;1.90;0.68;;;10.20;99.90;;;;;;5077808;28;20017;-73
2021/10/19 07:21:14;;;;;;;0.20;0.20;;;10.30;99.90;;;;;;5085499;28;20035;-73
2021/10/19 07:23:40;;;;;;;2.85;1.83;;;10.40;99.90;;;;;;5071223;28;20032;-73
2021/10/19 07:26:06;;;;;;;0.75;0.75;;;10.50;99.90;;;;;;5082667;28;20036;-73
2021/10/19 07:28:31;;;;;;;0.20;0.20;;;10.60;99.90;;;;;;5078959;28;20494;-73
2021/10/19 07:30:57;;;;;;;0.20;0.20;;;10.70;99.90;;;;;;5088106;28;20020;-73
2021/10/19 07:33:23;;;;;;;0.30;0.30;;;10.80;99.90;;;;;;5076327;28;20030;-72
2021/10/19 07:35:49;;;;;;;0.20;0.20;;;10.80;99.90;;;;;;5072560;28;20092;-73
2021/10/19 07:38:15;;;;;;;0.20;0.20;;;10.90;99.90;;;;;;5080581;28;20029;-74
2021/10/19 07:40:41;;;;;;;0.20;0.20;;;10.90;99.90;;;;;;5080953;28;20070;-73
2021/10/19 07:43:07;;;;;;;0.52;0.52;;;11.00;99.90;;;;;;5074883;28;20032;-73
2021/10/19 07:45:34;;;;;;;0.20;0.20;;;11.00;99.90;;;;;;5086737;28;20020;-73
2021/10/19 07:48:03;;;;;;;0.20;0.20;;;11.10;99.90;;;;;;5072460;28;20107;-73
2021/10/19 07:50:30;;;;;;;0.30;0.30;;;11.30;99.90;;;;;;5075577;28;20028;-73
2021/10/19 07:52:57;;;;;;;0.20;0.20;;;11.30;99.90;;;;;;5086879;28;20447;-73
2021/10/19 07:55:24;;;;;;;0.25;0.25;;;11.40;99.90;;;;;;5071117;28;20085;-73
2021/10/19 07:57:52;;;;;;;0.20;0.20;;;11.50;99.90;;;;;;5070298;28;20029;-73
2021/10/19 08:00:24;;;;;;;0.20;0.20;;;11.60;99.90;;;;;;5071011;28;20025;-73
2021/10/19 08:02:51;;;;;;;0.13;0.13;;;11.60;99.90;;;;;;5056740;28;20086;-74
2021/10/19 08:05:17;;;;;;;0.30;0.30;;;11.70;99.90;;;;;;5082884;28;20033;-74
2021/10/19 08:07:49;;;;;;;5.05;4.57;;;11.70;99.90;;;;;;5062503;28;20067;-73
2021/10/19 08:10:18;;;;;;;0.20;0.20;;;11.80;99.90;;;;;;5075363;28;20031;-73
2021/10/19 08:12:44;;;;;;;0.20;0.20;;;11.90;99.90;;;;;;5072796;28;20043;-73
2021/10/19 08:15:11;;;;;;;0.20;0.20;;;11.90;99.90;;;;;;5080583;28;20066;-73
2021/10/19 08:17:37;;;;;;;0.13;0.13;;;11.80;99.90;;;;;;5075217;28;20107;-73
2021/10/19 08:20:03;;;;;;;2.05;1.23;;;11.80;99.90;;;;;;5070352;28;20108;-73
2021/10/19 08:22:31;;;;;;;0.20;0.20;;;11.90;99.90;;;;;;5074548;28;20031;-73
2021/10/19 08:24:58;;;;;;;0.20;0.20;;;11.90;99.90;;;;;;5079937;28;20029;-73
2021/10/19 08:27:25;;;;;;;0.20;0.20;;;12.00;99.90;;;;;;5090238;28;20032;-73
2021/10/19 08:29:51;;;;;;;0.20;0.20;;;12.00;99.90;;;;;;5079060;28;20024;-73
2021/10/19 08:32:17;;;;;;;0.20;0.20;;;12.00;99.90;;;;;;5085210;28;20021;-73
2021/10/19 08:34:43;;;;;;;0.30;0.30;;;12.10;99.90;;;;;;5080664;28;20487;-73
2021/10/19 08:37:08;;;;;;;0.20;0.20;;;12.20;99.90;;;;;;5088652;28;20016;-73
2021/10/19 08:39:34;;;;;;;0.20;0.20;;;12.40;99.90;;;;;;5090760;28;20032;-73
2021/10/19 08:42:01;;;;;;;0.20;0.20;;;12.70;99.90;;;;;;5091223;28;20042;-73
2021/10/19 08:44:28;;;;;;;0.20;0.20;;;12.90;99.90;;;;;;5069589;28;20058;-73
2021/10/19 08:46:53;;;;;;;0.20;0.20;;;12.90;99.60;;;;;;5070201;28;20028;-73
2021/10/19 08:49:19;;;;;;;0.20;0.20;;;12.90;99.90;;;;;;5075932;28;20036;-74
2021/10/19 08:51:45;;;;;;;0.20;0.20;;;12.90;99.50;;;;;;5079842;28;20026;-74
2021/10/19 08:54:11;;;;;;;2.13;2.03;;;12.90;99.30;;;;;;5075478;28;20028;-73
2021/10/19 08:56:38;;;;;;;0.28;0.28;;;12.90;98.50;;;;;;5058146;28;20055;-73
2021/10/19 08:59:04;;;;;;;0.20;0.20;;;13.00;99.30;;;;;;5076774;28;20020;-74
2021/10/19 09:01:34;;;;;;;0.20;0.20;;;13.00;98.40;;;;;;5091581;28;20552;-74
2021/10/19 09:04:04;;;;;;;0.15;0.15;;;13.10;98.50;;;;;;5084919;28;20035;-74
2021/10/19 09:06:33;;;;;;;0.20;0.20;;;13.10;97.40;;;;;;5089748;28;20032;-74
2021/10/19 09:09:07;;;;;;;0.10;0.10;;;13.20;97.70;;;;;;5080470;28;20115;-74
2021/10/19 09:11:54;;;;;;;0.10;0.10;;;13.20;98.30;;;;;;5085768;28;20021;-74
2021/10/19 09:14:27;;;;;;;0.35;0.35;;;13.10;98.50;;;;;;5070832;28;20104;-74
2021/10/19 09:16:56;;;;;;;0.15;0.15;;;13.10;98.30;;;;;;5062278;28;20047;-74
2021/10/19 09:19:22;;;;;;;0.20;0.20;;;13.10;99.40;;;;;;5068677;28;20552;-73
2021/10/19 09:22:03;;;;;;;0.20;0.20;;;13.10;98.90;;;;;;5075130;28;20036;-74
2021/10/19 09:24:32;;;;;;;0.23;0.23;;;13.10;98.40;;;;;;5070850;28;20033;-74
2021/10/19 09:27:07;;;;;;;0.20;0.20;;;13.00;99.00;;;;;;5078866;28;20438;-73
2021/10/19 09:29:41;;;;;;;0.20;0.20;;;13.10;99.70;;;;;;5073818;28;20028;-74
2021/10/19 09:32:09;;;;;;;0.20;0.20;;;13.00;99.90;;;;;;5070822;28;20048;-74
2021/10/19 09:34:37;;;;;;;0.17;0.17;;;13.10;99.90;;;;;;5077290;28;20025;-74
2021/10/19 09:37:09;;;;;;;0.10;0.10;;;13.10;99.90;;;;;;5075712;28;20025;-74
2021/10/19 09:39:44;;;;;;;0.20;0.20;;;13.10;99.00;;;;;;5052761;28;20059;-74
2021/10/19 09:42:18;;;;;;;0.22;0.22;;;13.30;99.50;;;;;;5070281;28;20032;-74
2021/10/19 09:44:58;;;;;;;0.20;0.20;;;13.30;99.20;;;;;;5075703;28;20375;-74
2021/10/19 09:47:29;;;;;;;0.20;0.20;;;13.40;99.00;;;;;;5088632;28;20020;-73
2021/10/19 09:49:56;;;;;;;0.20;0.20;;;13.30;99.30;;;;;;5079044;28;20028;-73
2021/10/19 09:52:22;;;;;;;0.10;0.10;;;13.40;99.70;;;;;;5074258;28;20046;-74
2021/10/19 09:54:53;;;;;;;0.20;0.20;;;13.50;99.60;;;;;;5073447;28;20057;-73
2021/10/19 09:57:19;;;;;;;0.10;0.10;;;13.50;99.40;;;;;;5070049;28;20028;-74
2021/10/19 09:59:46;;;;;;;0.10;0.10;;;13.50;99.00;;;;;;5078141;28;20028;-73
2021/10/19 10:02:14;;;;;;;0.10;0.10;;;13.50;99.50;;;;;;5077012;28;20024;-74
2021/10/19 10:04:43;;;;;;;0.20;0.20;;;13.50;99.70;;;;;;5079820;28;20032;-74
2021/10/19 10:07:12;;;;;;;0.20;0.20;;;13.60;99.90;;;;;;5083657;28;20127;-74
2021/10/19 10:09:42;;;;;;;0.17;0.17;;;13.60;99.80;;;;;;5076710;28;20020;-74
2021/10/19 10:12:08;;;;;;;0.20;0.20;;;13.60;99.90;;;;;;5080377;28;20021;-74
2021/10/19 10:14:48;;;;;;;0.10;0.10;;;13.70;99.90;;;;;;5086545;28;20105;-74
2021/10/19 10:17:15;;;;;;;0.10;0.10;;;13.70;99.90;;;;;;5073896;28;20388;-74
2021/10/19 10:19:43;;;;;;;0.20;0.20;;;13.80;99.90;;;;;;5057562;28;20108;-74
2021/10/19 10:22:30;;;;;;;0.20;0.20;;;13.70;99.90;;;;;;5071897;28;20076;-72
2021/10/19 10:25:08;;;;;;;0.17;0.17;;;13.80;99.80;;;;;;5057630;28;20036;-72
2021/10/19 10:27:35;;;;;;;1.95;1.85;;;13.70;99.90;;;;;;5080097;28;20366;-72
2021/10/19 10:30:02;;;;;;;0.10;0.10;;;13.80;99.90;;;;;;5079406;28;20029;-72
2021/10/19 10:32:31;;;;;;;0.13;0.13;;;13.80;99.90;;;;;;5062552;28;20155;-73
2021/10/19 10:35:07;;;;;;;0.20;0.20;;;13.70;99.90;;;;;;5063917;28;20028;-72
2021/10/19 10:37:45;;;;;;;0.20;0.20;;;13.80;99.90;;;;;;5075147;28;20025;-72
2021/10/19 10:40:25;;;;;;;0.10;0.10;;;13.80;99.90;;;;;;5071592;28;20029;-72
2021/10/19 10:42:51;;;;;;;0.20;0.20;;;13.70;99.90;;;;;;5067354;28;20040;-73
2021/10/19 10:45:20;;;;;;;0.10;0.10;;;13.70;99.90;;;;;;5079672;28;20032;-73
2021/10/19 10:47:47;;;;;;;0.20;0.20;;;13.70;99.90;;;;;;5079447;28;20531;-73
2021/10/19 10:50:14;;;;;;;0.10;0.10;;;13.70;99.90;;;;;;5082429;28;20111;-73
2021/10/19 10:52:40;;;;;;;0.40;0.35;;;13.80;99.90;;;;;;5082707;28;20077;-73
2021/10/19 10:55:13;;;;;;;2.72;1.30;;;13.90;99.90;;;;;;5077842;28;20048;-73
2021/10/19 10:57:44;;;;;;;0.47;0.47;;;14.00;99.90;;;;;;5076868;28;20055;-73
2021/10/19 11:00:10;;;;;;;0.10;0.10;;;13.90;99.90;;;;;;5077106;28;20029;-73
2021/10/19 11:02:36;;;;;;;0.10;0.10;;;14.00;99.90;;;;;;5077180;28;20032;-73
2021/10/19 11:05:02;;;;;;;0.30;0.30;;;14.00;99.90;;;;;;5080187;28;20020;-73
2021/10/19 11:07:34;;;;;;;0.10;0.10;;;14.00;99.90;;;;;;5079790;28;20032;-72
2021/10/19 11:10:18;;;;;;;0.20;0.20;;;14.20;99.90;;;;;;5086940;28;20051;-73
2021/10/19 11:12:45;;;;;;;4.68;0.55;;;14.20;99.90;;;;;;5072153;28;20059;-73
2021/10/19 11:15:17;;;;;;;0.20;0.20;;;14.40;99.90;;;;;;5077694;28;20024;-73
2021/10/19 11:17:48;;;;;;;0.10;0.10;;;14.50;99.90;;;;;;5079632;28;20032;-73
2021/10/19 11:20:16;;;;;;;0.20;0.20;;;14.50;99.90;;;;;;5087414;28;20028;-73
2021/10/19 11:22:42;;;;;;;0.15;0.15;;;14.60;99.90;;;;;;5083047;28;20081;-73
2021/10/19 11:25:09;;;;;;;0.20;0.20;;;14.60;99.90;;;;;;5070093;28;20035;-73
2021/10/19 11:27:37;;;;;;;2.20;1.25;;;14.70;99.90;;;;;;5086017;28;20021;-73
2021/10/19 11:30:06;;;;;;;0.10;0.10;;;14.80;99.90;;;;;;5075928;28;20024;-73
2021/10/19 11:32:33;;;;;;;0.10;0.10;;;14.80;99.90;;;;;;5078981;28;20034;-73
2021/10/19 11:34:59;;;;;;;0.10;0.10;;;14.80;99.90;;;;;;5087190;28;20021;-73
2021/10/19 11:37:26;;;;;;;0.30;0.30;;;14.90;99.90;;;;;;5082695;28;20084;-73
2021/10/19 11:40:07;;;;;;;0.30;0.30;;;14.90;99.90;;;;;;5081201;28;20388;-75
2021/10/19 11:42:42;;;;;;;0.20;0.20;;;14.90;99.90;;;;;;5080591;28;20023;-73
2021/10/19 11:45:09;;;;;;;0.38;0.38;;;14.90;99.90;;;;;;5082419;28;20020;-73
2021/10/19 11:48:01;;;;;;;0.10;0.10;;;15.00;99.90;;;;;;5076934;28;20388;-73
2021/10/19 11:50:29;;;;;;;0.20;0.20;;;15.00;99.90;;;;;;5090304;28;20040;-73
2021/10/19 11:52:56;;;;;;;0.10;0.10;;;15.00;99.90;;;;;;5078875;28;20104;-73
2021/10/19 11:55:22;;;;;;;0.98;0.98;;;15.10;99.90;;;;;;5085519;28;20111;-73
2021/10/19 11:57:53;;;;;;;0.10;0.10;;;15.10;99.90;;;;;;5068849;28;20159;-73
2021/10/19 12:00:20;;;;;;;0.10;0.10;;;15.20;99.90;;;;;;5089762;28;20429;-73
2021/10/19 12:02:57;;;;;;;0.10;0.10;;;15.30;99.90;;;;;;5075286;28;20102;-73
2021/10/19 12:05:25;;;;;;;0.20;0.20;;;15.30;99.90;;;;;;5073412;28;20400;-72
2021/10/19 12:07:54;;;;;;;0.10;0.10;;;15.40;99.90;;;;;;5073218;28;20033;-72
2021/10/19 12:10:22;;;;;;;0.10;0.10;;;15.40;99.90;;;;;;5084384;28;20047;-72
2021/10/19 12:13:10;;;;;;;0.20;0.20;;;15.50;99.90;;;;;;5077887;28;20021;-73
2021/10/19 12:15:37;;;;;;;0.17;0.17;;;15.60;99.90;;;;;;5080380;28;20020;-73
2021/10/19 12:18:07;;;;;;;0.17;0.17;;;15.60;99.90;;;;;;5087059;28;20025;-74
2021/10/19 12:20:37;;;;;;;0.20;0.20;;;15.60;99.90;;;;;;5081451;28;20020;-73
2021/10/19 12:23:07;;;;;;;0.30;0.30;;;15.70;99.90;;;;;;5080837;28;20036;-73
2021/10/19 12:25:44;;;;;;;0.10;0.10;;;15.80;99.90;;;;;;5088652;28;20507;-72
2021/10/19 12:28:22;;;;;;;0.10;0.10;;;15.80;99.90;;;;;;5086630;28;20052;-72
2021/10/19 12:30:48;;;;;;;0.20;0.20;;;15.90;99.90;;;;;;5079410;28;20039;-73
2021/10/19 12:33:20;;;;;;;0.20;0.20;;;15.90;99.90;;;;;;5088963;28;20112;-73
2021/10/19 12:35:50;;;;;;;0.10;0.10;;;15.90;99.90;;;;;;5081321;28;20426;-73
2021/10/19 12:38:16;;;;;;;0.10;0.10;;;16.00;99.90;;;;;;5086285;28;20380;-72
2021/10/19 12:40:44;;;;;;;0.20;0.20;;;16.10;99.90;;;;;;5084689;28;20031;-73
2021/10/19 12:43:10;;;;;;;0.20;0.20;;;16.10;99.90;;;;;;5077749;28;20460;-73
2021/10/19 12:45:35;;;;;;;0.10;0.10;;;16.30;99.90;;;;;;5079806;28;20028;-72
2021/10/19 12:48:05;;;;;;;0.10;0.10;;;16.20;99.90;;;;;;5069499;28;20032;-72
2021/10/19 12:50:32;;;;;;;0.10;0.10;;;16.30;99.90;;;;;;5083948;28;20020;-72
2021/10/19 12:52:58;;;;;;;0.15;0.15;;;16.40;99.90;;;;;;5082979;28;20021;-72